createdAt,value
2018-09-29T00:00:52.302Z,6.85
2018-09-29T00:02:02.507Z,5.42
2018-09-29T00:03:12.305Z,7.37
2018-09-29T00:04:22.250Z,7.05
2018-09-29T00:05:32.238Z,6.90
2018-09-29T00:06:42.508Z,5.85
2018-09-29T00:07:52.438Z,7.75
2018-09-29T00:09:02.674Z,5.62
2018-09-29T00:10:12.783Z,10.70
2018-09-29T00:11:22.768Z,6.87
2018-09-29T00:12:32.958Z,8.53
2018-09-29T00:13:43.099Z,7.95
2018-09-29T00:14:52.918Z,7.67
2018-09-29T00:16:03.000Z,8.40
2018-09-29T00:17:13.069Z,7.47
2018-09-29T00:18:23.289Z,6.67
2018-09-29T00:19:33.392Z,7.20
2018-09-29T00:20:43.619Z,8.63
2018-09-29T00:21:53.568Z,7.42
2018-09-29T00:23:03.523Z,8.28
2018-09-29T00:24:13.694Z,7.67
2018-09-29T00:25:23.706Z,7.62
2018-09-29T00:26:33.823Z,8.18
2018-09-29T00:27:44.088Z,6.85
2018-09-29T00:28:54.094Z,8.53
2018-09-29T00:30:04.221Z,12.73
2018-09-29T00:31:14.601Z,7.05
2018-09-29T00:32:24.415Z,9.75
2018-09-29T00:33:34.555Z,8.78
2018-09-29T00:34:44.934Z,10.28
2018-09-29T00:35:54.801Z,8.30
2018-09-29T00:37:04.770Z,8.90
2018-09-29T00:38:14.835Z,7.85
2018-09-29T00:39:24.934Z,7.75
2018-09-29T00:40:35.464Z,9.45
2018-09-29T00:41:45.655Z,8.50
2018-09-29T00:42:55.675Z,8.63
2018-09-29T00:44:05.580Z,7.90
2018-09-29T00:45:15.919Z,10.10
2018-09-29T00:46:26.008Z,7.40
2018-09-29T00:47:36.109Z,7.78
2018-09-29T00:48:46.317Z,10.00
2018-09-29T00:49:56.564Z,9.83
2018-09-29T00:51:06.679Z,7.92
2018-09-29T00:52:16.919Z,7.28
2018-09-29T00:53:27.163Z,8.20
2018-09-29T00:54:37.129Z,8.40
2018-09-29T00:55:47.170Z,10.32
2018-09-29T00:56:57.082Z,8.23
2018-09-29T00:58:07.110Z,7.97
2018-09-29T00:59:17.274Z,8.63
2018-09-29T01:00:27.583Z,8.45
2018-09-29T01:01:41.562Z,7.47
2018-09-29T01:02:51.762Z,7.75
2018-09-29T01:04:01.896Z,8.48
2018-09-29T01:05:12.434Z,8.83
2018-09-29T01:06:22.346Z,8.85
2018-09-29T01:07:32.166Z,8.30
2018-09-29T01:08:42.177Z,9.75
2018-09-29T01:09:52.475Z,7.67
2018-09-29T01:11:06.223Z,9.53
2018-09-29T01:12:16.421Z,7.25
2018-09-29T01:13:26.196Z,6.58
2018-09-29T01:14:36.508Z,8.65
2018-09-29T01:15:46.560Z,9.45
2018-09-29T01:16:56.667Z,9.60
2018-09-29T01:18:06.989Z,7.60
2018-09-29T01:19:16.857Z,8.28
2018-09-29T01:20:27.045Z,7.75
2018-09-29T01:21:37.076Z,8.55
2018-09-29T01:22:47.363Z,10.85
2018-09-29T01:23:57.500Z,8.50
2018-09-29T01:25:07.589Z,8.55
2018-09-29T01:26:17.623Z,7.22
2018-09-29T01:27:27.850Z,6.62
2018-09-29T01:28:37.999Z,7.15
2018-09-29T01:29:48.260Z,7.15
2018-09-29T01:30:58.405Z,6.62
2018-09-29T01:32:11.881Z,6.30
2018-09-29T01:33:21.981Z,6.97
2018-09-29T01:34:32.020Z,6.97
2018-09-29T01:35:42.031Z,6.75
2018-09-29T01:36:52.092Z,7.60
2018-09-29T01:38:02.167Z,9.95
2018-09-29T01:39:12.485Z,10.40
2018-09-29T01:40:22.445Z,10.63
2018-09-29T01:41:32.602Z,9.00
2018-09-29T01:42:42.419Z,8.08
2018-09-29T01:43:52.502Z,10.43
2018-09-29T01:45:02.726Z,8.78
2018-09-29T01:46:13.104Z,7.75
2018-09-29T01:47:28.613Z,9.35
2018-09-29T01:48:38.892Z,7.70
2018-09-29T01:49:48.718Z,7.05
2018-09-29T01:50:58.884Z,6.53
2018-09-29T01:52:08.841Z,7.55
2018-09-29T01:53:18.756Z,8.98
2018-09-29T01:54:28.901Z,7.00
2018-09-29T01:55:38.974Z,8.00
2018-09-29T01:56:49.251Z,7.22
2018-09-29T01:57:59.495Z,7.47
2018-09-29T01:59:09.772Z,6.67
2018-09-29T02:00:19.991Z,6.67
2018-09-29T02:01:30.143Z,7.15
2018-09-29T02:02:40.341Z,7.33
2018-09-29T02:03:53.979Z,7.58
2018-09-29T02:05:04.065Z,6.85
2018-09-29T02:06:14.024Z,6.20
2018-09-29T02:07:24.173Z,6.60
2018-09-29T02:08:33.929Z,5.92
2018-09-29T02:09:44.131Z,5.85
2018-09-29T02:10:54.332Z,8.60
2018-09-29T02:12:04.320Z,6.65
2018-09-29T02:13:21.781Z,5.40
2018-09-29T02:14:31.671Z,6.42
2018-09-29T02:15:41.651Z,7.97
2018-09-29T02:16:51.789Z,6.50
2018-09-29T02:18:02.215Z,5.85
2018-09-29T02:19:11.981Z,6.10
2018-09-29T02:20:21.774Z,8.65
2018-09-29T02:21:32.161Z,5.15
2018-09-29T02:22:41.923Z,4.67
2018-09-29T02:23:55.082Z,6.92
2018-09-29T02:25:05.258Z,4.90
2018-09-29T02:26:15.368Z,6.72
2018-09-29T02:27:25.457Z,6.97
2018-09-29T02:28:35.415Z,5.75
2018-09-29T02:29:45.548Z,6.50
2018-09-29T02:30:55.779Z,4.25
2018-09-29T02:32:05.920Z,5.10
2018-09-29T02:33:15.790Z,5.70
2018-09-29T02:34:25.628Z,5.30
2018-09-29T02:35:35.670Z,5.58
2018-09-29T02:36:45.585Z,5.85
2018-09-29T02:37:55.715Z,5.22
2018-09-29T02:39:08.711Z,4.90
2018-09-29T02:40:18.614Z,4.90
2018-09-29T02:41:28.899Z,5.45
2018-09-29T02:42:39.103Z,5.60
2018-09-29T02:43:49.138Z,5.50
2018-09-29T02:44:59.458Z,4.28
2018-09-29T02:46:09.827Z,4.15
2018-09-29T02:47:19.824Z,5.03
2018-09-29T02:48:29.629Z,7.05
2018-09-29T02:49:39.400Z,7.15
2018-09-29T02:50:49.498Z,5.55
2018-09-29T02:51:59.567Z,3.83
2018-09-29T02:53:09.609Z,4.83
2018-09-29T02:54:19.469Z,3.50
2018-09-29T02:55:29.273Z,4.37
2018-09-29T02:56:39.877Z,4.15
2018-09-29T02:57:50.158Z,6.40
2018-09-29T02:59:00.412Z,6.47
2018-09-29T03:00:10.719Z,3.05
2018-09-29T03:01:20.658Z,4.22
2018-09-29T03:02:30.740Z,5.42
2018-09-29T03:03:40.768Z,4.62
2018-09-29T03:04:51.111Z,4.53
2018-09-29T03:06:01.524Z,5.08
2018-09-29T03:07:11.336Z,3.80
2018-09-29T03:08:20.826Z,4.75
2018-09-29T03:09:30.287Z,3.85
2018-09-29T03:10:39.876Z,4.78
2018-09-29T03:11:49.537Z,4.60
2018-09-29T03:12:59.102Z,3.60
2018-09-29T03:14:08.838Z,4.87
2018-09-29T03:15:18.431Z,3.50
2018-09-29T03:16:28.048Z,4.12
2018-09-29T03:17:37.596Z,6.40
2018-09-29T03:18:47.417Z,4.45
2018-09-29T03:19:57.116Z,4.22
2018-09-29T03:21:06.975Z,4.35
2018-09-29T03:22:16.546Z,4.00
2018-09-29T03:23:26.142Z,3.40
2018-09-29T03:24:35.636Z,3.90
2018-09-29T03:25:45.501Z,3.90
2018-09-29T03:26:55.122Z,4.47
2018-09-29T03:28:04.692Z,3.40
2018-09-29T03:29:21.000Z,5.08
2018-09-29T03:30:30.524Z,2.85
2018-09-29T03:31:40.212Z,3.50
2018-09-29T03:32:49.722Z,5.62
2018-09-29T03:33:59.602Z,4.67
2018-09-29T03:35:09.196Z,3.00
2018-09-29T03:36:18.795Z,4.42
2018-09-29T03:37:28.478Z,3.45
2018-09-29T03:38:38.200Z,3.98
2018-09-29T03:39:51.185Z,2.85
2018-09-29T03:41:01.025Z,3.90
2018-09-29T03:42:10.839Z,4.87
2018-09-29T03:43:20.487Z,3.40
2018-09-29T03:44:30.273Z,3.15
2018-09-29T03:45:43.902Z,3.25
2018-09-29T03:46:59.889Z,3.90
2018-09-29T03:48:09.512Z,3.35
2018-09-29T03:49:19.392Z,4.90
2018-09-29T03:50:32.380Z,3.85
2018-09-29T03:51:42.275Z,4.05
2018-09-29T03:52:51.711Z,3.60
2018-09-29T03:54:01.389Z,3.08
2018-09-29T03:55:10.971Z,4.42
2018-09-29T03:56:25.974Z,2.62
2018-09-29T03:57:35.574Z,2.92
2018-09-29T03:58:45.307Z,4.45
2018-09-29T03:59:54.955Z,3.02
2018-09-29T04:01:10.063Z,3.30
2018-09-29T04:02:19.878Z,5.22
2018-09-29T04:03:29.451Z,3.20
2018-09-29T04:04:39.018Z,4.60
2018-09-29T04:05:48.726Z,3.30
2018-09-29T04:07:01.901Z,3.25
2018-09-29T04:08:11.481Z,3.25
2018-09-29T04:09:21.197Z,3.27
2018-09-29T04:10:31.102Z,6.10
2018-09-29T04:11:40.700Z,4.58
2018-09-29T04:12:50.335Z,8.65
2018-09-29T04:13:59.861Z,4.55
2018-09-29T04:15:13.355Z,3.87
2018-09-29T04:16:23.076Z,6.55
2018-09-29T04:17:32.728Z,3.00
2018-09-29T04:18:42.676Z,3.35
2018-09-29T04:20:07.310Z,3.80
2018-09-29T04:21:16.966Z,6.83
2018-09-29T04:22:26.639Z,3.62
2018-09-29T04:23:36.226Z,5.08
2018-09-29T04:24:45.742Z,4.40
2018-09-29T04:26:00.745Z,7.72
2018-09-29T04:27:10.485Z,4.85
2018-09-29T04:28:20.270Z,5.62
2018-09-29T04:29:29.808Z,3.45
2018-09-29T04:30:43.354Z,3.20
2018-09-29T04:31:53.116Z,3.90
2018-09-29T04:33:02.970Z,5.45
2018-09-29T04:34:13.244Z,4.42
2018-09-29T04:35:28.005Z,2.98
2018-09-29T04:36:37.550Z,3.98
2018-09-29T04:37:47.335Z,8.85
2018-09-29T04:38:57.145Z,11.10
2018-09-29T04:40:06.837Z,4.97
2018-09-29T04:41:16.989Z,4.53
2018-09-29T04:42:26.763Z,3.70
2018-09-29T04:43:36.518Z,2.95
2018-09-29T04:44:46.085Z,3.70
2018-09-29T04:45:55.741Z,6.55
2018-09-29T04:47:05.282Z,3.40
2018-09-29T04:48:14.943Z,3.42
2018-09-29T04:49:24.825Z,4.40
2018-09-29T04:50:34.696Z,8.30
2018-09-29T04:51:44.449Z,3.15
2018-09-29T04:52:54.178Z,3.87
2018-09-29T04:54:03.854Z,3.80
2018-09-29T04:55:13.653Z,2.98
2018-09-29T04:56:23.565Z,2.40
2018-09-29T04:57:33.252Z,3.08
2018-09-29T04:58:42.736Z,2.42
2018-09-29T04:59:52.753Z,5.20
2018-09-29T05:01:02.301Z,3.55
2018-09-29T05:02:11.808Z,2.90
2018-09-29T05:03:21.477Z,9.23
2018-09-29T05:04:36.765Z,2.90
2018-09-29T05:05:46.632Z,4.28
2018-09-29T05:06:56.372Z,4.15
2018-09-29T05:08:06.323Z,2.27
2018-09-29T05:09:15.950Z,4.97
2018-09-29T05:10:25.852Z,4.15
2018-09-29T05:11:35.584Z,3.45
2018-09-29T05:12:45.187Z,4.55
2018-09-29T05:13:54.955Z,3.87
2018-09-29T05:15:04.806Z,2.60
2018-09-29T05:16:14.380Z,2.42
2018-09-29T05:17:24.223Z,2.17
2018-09-29T05:18:33.937Z,6.08
2018-09-29T05:19:43.615Z,4.95
2018-09-29T05:20:53.381Z,2.92
2018-09-29T05:22:02.870Z,3.08
2018-09-29T05:23:12.926Z,4.20
2018-09-29T05:24:22.711Z,3.30
2018-09-29T05:25:32.293Z,2.90
2018-09-29T05:26:41.770Z,6.15
2018-09-29T05:27:51.579Z,3.30
2018-09-29T05:29:01.289Z,1.65
2018-09-29T05:30:11.472Z,2.83
2018-09-29T05:32:35.961Z,3.08
2018-09-29T05:33:45.577Z,3.20
2018-09-29T05:34:55.210Z,3.58
2018-09-29T05:36:04.712Z,4.03
2018-09-29T05:37:18.037Z,1.85
2018-09-29T05:38:27.883Z,2.83
2018-09-29T05:39:37.534Z,5.72
2018-09-29T05:40:47.412Z,3.83
2018-09-29T05:42:00.477Z,2.90
2018-09-29T05:43:10.075Z,3.60
2018-09-29T05:44:19.729Z,3.15
2018-09-29T05:45:29.290Z,2.40
2018-09-29T05:46:38.966Z,2.10
2018-09-29T05:47:48.586Z,1.30
2018-09-29T05:48:58.322Z,5.40
2018-09-29T05:50:08.222Z,3.45
2018-09-29T05:51:18.145Z,2.67
2018-09-29T05:52:27.958Z,1.82
2018-09-29T05:53:37.486Z,1.20
2018-09-29T05:54:47.001Z,2.62
2018-09-29T05:55:56.585Z,2.35
2018-09-29T05:57:06.093Z,1.77
2018-09-29T05:58:15.842Z,2.05
2018-09-29T05:59:25.470Z,6.53
2018-09-29T06:00:35.172Z,4.25
2018-09-29T06:01:44.725Z,2.42
2018-09-29T06:02:54.393Z,2.40
2018-09-29T06:04:04.250Z,2.60
2018-09-29T06:05:13.844Z,1.77
2018-09-29T06:06:23.493Z,3.05
2018-09-29T06:07:33.312Z,3.05
2018-09-29T06:08:42.979Z,3.55
2018-09-29T06:09:52.620Z,1.98
2018-09-29T06:11:02.335Z,1.35
2018-09-29T06:12:12.057Z,1.07
2018-09-29T06:13:21.650Z,2.35
2018-09-29T06:14:31.516Z,1.92
2018-09-29T06:15:41.219Z,1.32
2018-09-29T06:16:54.711Z,3.80
2018-09-29T06:18:04.460Z,4.83
2018-09-29T06:19:14.201Z,1.98
2018-09-29T06:20:23.869Z,1.72
2018-09-29T06:21:33.531Z,3.22
2018-09-29T06:22:43.346Z,2.65
2018-09-29T06:23:53.001Z,1.27
2018-09-29T06:25:02.496Z,3.45
2018-09-29T06:26:12.065Z,3.37
2018-09-29T06:27:21.785Z,1.70
2018-09-29T06:28:31.312Z,6.05
2018-09-29T06:29:40.810Z,1.55
2018-09-29T06:30:50.701Z,3.22
2018-09-29T06:32:00.293Z,2.27
2018-09-29T06:33:10.161Z,2.35
2018-09-29T06:34:19.767Z,1.65
2018-09-29T06:35:29.504Z,1.27
2018-09-29T06:36:39.161Z,1.40
2018-09-29T06:37:48.931Z,1.82
2018-09-29T06:38:58.499Z,2.55
2018-09-29T06:40:08.186Z,1.22
2018-09-29T06:41:17.811Z,3.65
2018-09-29T06:42:27.380Z,1.20
2018-09-29T06:43:37.069Z,1.05
2018-09-29T06:44:46.901Z,1.60
2018-09-29T06:45:56.484Z,1.12
2018-09-29T06:47:06.266Z,1.65
2018-09-29T06:48:21.445Z,1.57
2018-09-29T06:49:31.070Z,1.57
2018-09-29T06:50:40.835Z,1.40
2018-09-29T06:51:50.605Z,2.62
2018-09-29T06:53:05.720Z,1.82
2018-09-29T06:54:15.404Z,2.70
2018-09-29T06:55:25.175Z,2.08
2018-09-29T06:56:34.795Z,1.37
2018-09-29T06:57:44.306Z,3.47
2018-09-29T06:58:53.886Z,1.00
2018-09-29T07:00:03.490Z,3.35
2018-09-29T07:01:12.965Z,2.15
2018-09-29T07:02:22.493Z,1.65
2018-09-29T07:03:32.399Z,2.50
2018-09-29T07:04:42.130Z,1.98
2018-09-29T07:05:51.814Z,4.72
2018-09-29T07:07:01.485Z,2.62
2018-09-29T07:08:11.384Z,4.62
2018-09-29T07:09:21.090Z,1.95
2018-09-29T07:10:30.904Z,1.67
2018-09-29T07:11:40.561Z,4.75
2018-09-29T07:12:50.154Z,1.65
2018-09-29T07:13:59.844Z,1.30
2018-09-29T07:15:09.629Z,1.55
2018-09-29T07:16:19.171Z,3.12
2018-09-29T07:17:28.808Z,2.25
2018-09-29T07:18:38.486Z,2.70
2018-09-29T07:19:48.164Z,4.60
2018-09-29T07:21:01.635Z,6.25
2018-09-29T07:22:11.206Z,4.72
2018-09-29T07:23:20.793Z,4.40
2018-09-29T07:24:30.670Z,5.42
2018-09-29T07:25:40.298Z,1.10
2018-09-29T07:26:50.109Z,3.12
2018-09-29T07:27:59.713Z,4.17
2018-09-29T07:29:09.413Z,1.80
2018-09-29T07:30:19.152Z,4.28
2018-09-29T07:31:28.637Z,1.92
2018-09-29T07:32:41.446Z,3.47
2018-09-29T07:33:51.186Z,1.87
2018-09-29T07:35:00.774Z,3.08
2018-09-29T07:36:10.305Z,1.77
2018-09-29T07:37:20.035Z,1.65
2018-09-29T07:38:29.621Z,1.62
2018-09-29T07:39:39.172Z,5.37
2018-09-29T07:40:48.693Z,4.35
2018-09-29T07:41:58.521Z,2.50
2018-09-29T07:43:08.173Z,1.67
2018-09-29T07:44:17.865Z,1.47
2018-09-29T07:45:27.802Z,2.33
2018-09-29T07:46:37.390Z,3.10
2018-09-29T07:47:47.037Z,2.35
2018-09-29T07:48:56.733Z,2.58
2018-09-29T07:50:06.558Z,5.62
2018-09-29T07:51:16.238Z,4.47
2018-09-29T07:52:25.935Z,2.20
2018-09-29T07:53:35.783Z,3.50
2018-09-29T07:54:45.341Z,7.35
2018-09-29T07:55:54.772Z,2.80
2018-09-29T07:57:04.498Z,3.42
2018-09-29T07:58:14.014Z,2.12
2018-09-29T07:59:23.681Z,4.60
2018-09-29T08:00:33.423Z,2.58
2018-09-29T08:01:43.129Z,2.42
2018-09-29T08:02:52.706Z,4.47
2018-09-29T08:04:02.234Z,4.35
2018-09-29T08:05:11.953Z,1.52
2018-09-29T08:06:21.569Z,5.67
2018-09-29T08:07:31.415Z,3.05
2018-09-29T08:08:41.395Z,2.72
2018-09-29T08:09:51.137Z,4.00
2018-09-29T08:11:00.907Z,1.72
2018-09-29T08:12:10.572Z,2.45
2018-09-29T08:13:20.302Z,1.85
2018-09-29T08:14:30.099Z,3.75
2018-09-29T08:15:39.694Z,5.12
2018-09-29T08:16:49.437Z,6.12
2018-09-29T08:17:59.213Z,4.33
2018-09-29T08:19:09.064Z,2.65
2018-09-29T08:20:18.726Z,5.10
2018-09-29T08:21:28.550Z,4.25
2018-09-29T08:22:38.323Z,2.55
2018-09-29T08:23:48.145Z,2.12
2018-09-29T08:24:58.060Z,3.58
2018-09-29T08:26:07.515Z,3.55
2018-09-29T08:27:17.031Z,4.90
2018-09-29T08:28:26.845Z,6.40
2018-09-29T08:29:36.430Z,3.92
2018-09-29T08:30:46.012Z,5.10
2018-09-29T08:31:55.706Z,6.83
2018-09-29T08:33:10.750Z,2.00
2018-09-29T08:34:20.490Z,2.90
2018-09-29T08:35:30.031Z,6.33
2018-09-29T08:36:39.755Z,2.77
2018-09-29T08:37:49.715Z,3.22
2018-09-29T08:39:05.097Z,2.40
2018-09-29T08:40:14.731Z,2.95
2018-09-29T08:41:24.449Z,3.90
2018-09-29T08:42:34.324Z,4.42
2018-09-29T08:43:44.246Z,2.25
2018-09-29T08:44:53.767Z,2.47
2018-09-29T08:46:03.581Z,4.67
2018-09-29T08:47:13.054Z,4.30
2018-09-29T08:48:22.662Z,1.87
2018-09-29T08:49:35.808Z,1.47
2018-09-29T08:50:45.589Z,3.37
2018-09-29T08:51:55.370Z,2.20
2018-09-29T08:53:05.133Z,5.78
2018-09-29T08:54:15.022Z,3.92
2018-09-29T08:55:24.551Z,1.95
2018-09-29T08:56:34.095Z,2.27
2018-09-29T08:57:43.718Z,4.85
2018-09-29T08:58:53.355Z,3.05
2018-09-29T09:00:02.877Z,5.80
2018-09-29T09:01:12.611Z,2.22
2018-09-29T09:02:22.248Z,2.75
2018-09-29T09:03:41.110Z,3.87
2018-09-29T09:04:50.812Z,3.55
2018-09-29T09:06:00.600Z,3.55
2018-09-29T09:07:10.206Z,3.52
2018-09-29T09:08:19.882Z,4.25
2018-09-29T09:09:33.438Z,1.60
2018-09-29T09:10:43.495Z,2.50
2018-09-29T09:11:53.309Z,3.83
2018-09-29T09:13:02.805Z,2.95
2018-09-29T09:14:16.284Z,5.62
2018-09-29T09:15:26.081Z,3.47
2018-09-29T09:16:35.954Z,2.80
2018-09-29T09:17:45.391Z,5.12
2018-09-29T09:18:55.130Z,3.95
2018-09-29T09:20:08.187Z,2.90
2018-09-29T09:21:17.826Z,7.40
2018-09-29T09:22:27.629Z,3.02
2018-09-29T09:23:37.316Z,2.35
2018-09-29T09:24:50.868Z,2.00
2018-09-29T09:26:00.384Z,4.62
2018-09-29T09:27:10.062Z,2.95
2018-09-29T09:28:19.781Z,5.90
2018-09-29T09:29:29.401Z,2.70
2018-09-29T09:30:42.774Z,3.95
2018-09-29T09:31:52.505Z,2.42
2018-09-29T09:33:02.293Z,4.15
2018-09-29T09:34:12.121Z,2.55
2018-09-29T09:35:25.038Z,4.28
2018-09-29T09:36:34.717Z,2.75
2018-09-29T09:37:44.361Z,2.40
2018-09-29T09:38:54.129Z,3.08
2018-09-29T09:40:10.323Z,2.85
2018-09-29T09:41:19.991Z,4.08
2018-09-29T09:42:29.565Z,6.05
2018-09-29T09:43:39.166Z,4.00
2018-09-29T09:44:48.859Z,3.67
2018-09-29T09:45:58.553Z,4.30
2018-09-29T09:47:08.334Z,4.33
2018-09-29T09:48:17.938Z,3.62
2018-09-29T09:49:27.647Z,3.25
2018-09-29T09:50:37.551Z,4.37
2018-09-29T09:51:47.126Z,5.85
2018-09-29T09:52:57.077Z,5.92
2018-09-29T09:54:06.858Z,4.00
2018-09-29T09:55:16.526Z,5.35
2018-09-29T09:56:26.193Z,6.08
2018-09-29T09:57:35.963Z,4.00
2018-09-29T09:58:45.494Z,5.50
2018-09-29T09:59:55.268Z,5.78
2018-09-29T10:01:14.049Z,4.17
2018-09-29T10:02:29.160Z,2.17
2018-09-29T10:03:38.822Z,5.87
2018-09-29T10:04:48.418Z,4.12
2018-09-29T10:05:58.154Z,4.60
2018-09-29T10:07:10.846Z,5.03
2018-09-29T10:08:20.826Z,4.92
2018-09-29T10:09:30.484Z,2.92
2018-09-29T10:10:40.327Z,4.33
2018-09-29T10:11:53.654Z,6.25
2018-09-29T10:13:03.320Z,2.40
2018-09-29T10:14:12.948Z,2.65
2018-09-29T10:15:22.867Z,3.62
2018-09-29T10:16:32.747Z,2.58
2018-09-29T10:17:42.294Z,4.50
2018-09-29T10:18:52.198Z,4.92
2018-09-29T10:20:01.878Z,6.17
2018-09-29T10:21:11.299Z,7.25
2018-09-29T10:22:24.817Z,3.25
2018-09-29T10:23:34.475Z,2.52
2018-09-29T10:24:44.067Z,4.03
2018-09-29T10:25:53.625Z,4.17
2018-09-29T10:27:03.376Z,4.83
2018-09-29T10:28:16.166Z,3.75
2018-09-29T10:29:25.987Z,4.10
2018-09-29T10:30:35.571Z,4.65
2018-09-29T10:31:45.174Z,3.20
2018-09-29T10:32:55.114Z,5.72
2018-09-29T10:34:04.804Z,4.50
2018-09-29T10:35:14.427Z,2.75
2018-09-29T10:36:24.313Z,5.35
2018-09-29T10:37:33.920Z,2.95
2018-09-29T10:38:47.455Z,4.30
2018-09-29T10:39:57.369Z,4.65
2018-09-29T10:41:07.156Z,4.10
2018-09-29T10:42:16.668Z,3.52
2018-09-29T10:43:29.492Z,3.87
2018-09-29T10:44:39.292Z,3.42
2018-09-29T10:45:49.099Z,5.12
2018-09-29T10:46:58.846Z,3.92
2018-09-29T10:48:11.957Z,5.28
2018-09-29T10:49:21.627Z,3.22
2018-09-29T10:50:31.280Z,3.62
2018-09-29T10:51:41.014Z,3.35
2018-09-29T10:52:51.031Z,3.80
2018-09-29T10:54:00.862Z,6.37
2018-09-29T10:55:10.404Z,4.20
2018-09-29T10:56:20.056Z,4.47
2018-09-29T10:57:29.652Z,5.80
2018-09-29T10:58:39.339Z,3.62
2018-09-29T10:59:48.895Z,7.40
2018-09-29T11:00:58.500Z,3.30
2018-09-29T11:02:08.171Z,7.92
2018-09-29T11:03:17.605Z,4.72
2018-09-29T11:04:27.357Z,3.87
2018-09-29T11:05:37.053Z,3.80
2018-09-29T11:06:53.121Z,4.10
2018-09-29T11:08:02.687Z,5.25
2018-09-29T11:09:17.938Z,6.50
2018-09-29T11:10:27.733Z,5.20
2018-09-29T11:11:37.347Z,6.67
2018-09-29T11:12:47.192Z,4.33
2018-09-29T11:13:56.908Z,5.05
2018-09-29T11:15:06.369Z,3.37
2018-09-29T11:16:16.086Z,4.83
2018-09-29T11:17:25.818Z,5.17
2018-09-29T11:18:35.523Z,4.35
2018-09-29T11:19:48.755Z,5.92
2018-09-29T11:20:58.571Z,4.00
2018-09-29T11:22:07.971Z,3.95
2018-09-29T11:23:17.579Z,7.22
2018-09-29T11:24:39.377Z,3.10
2018-09-29T11:25:48.993Z,3.98
2018-09-29T11:26:58.685Z,4.15
2018-09-29T11:28:08.359Z,5.30
2018-09-29T11:29:18.074Z,4.45
2018-09-29T11:30:31.457Z,3.60
2018-09-29T11:31:41.263Z,3.95
2018-09-29T11:32:50.884Z,3.70
2018-09-29T11:34:00.606Z,5.12
2018-09-29T11:35:10.281Z,3.52
2018-09-29T11:36:23.837Z,3.17
2018-09-29T11:37:33.566Z,4.40
2018-09-29T11:38:43.216Z,3.62
2018-09-29T11:39:52.898Z,6.30
2018-09-29T11:41:02.744Z,5.35
2018-09-29T11:42:15.726Z,4.45
2018-09-29T11:43:25.310Z,3.67
2018-09-29T11:44:34.717Z,4.15
2018-09-29T11:45:44.609Z,4.62
2018-09-29T11:46:59.717Z,4.08
2018-09-29T11:48:09.333Z,3.08
2018-09-29T11:49:19.195Z,3.10
2018-09-29T11:50:28.914Z,5.08
2018-09-29T11:51:38.576Z,4.00
2018-09-29T11:52:48.241Z,7.53
2018-09-29T11:53:58.165Z,10.43
2018-09-29T11:55:07.830Z,7.53
2018-09-29T11:56:17.657Z,4.35
2018-09-29T11:57:27.420Z,3.90
2018-09-29T11:58:37.021Z,3.92
2018-09-29T11:59:46.742Z,4.05
2018-09-29T12:00:56.334Z,5.62
2018-09-29T12:02:05.963Z,4.62
2018-09-29T12:03:15.601Z,7.72
2018-09-29T12:04:25.325Z,3.12
2018-09-29T12:05:34.926Z,3.52
2018-09-29T12:06:44.624Z,9.05
2018-09-29T12:07:54.385Z,6.45
2018-09-29T12:09:05.795Z,3.90
2018-09-29T12:10:15.401Z,3.90
2018-09-29T12:11:25.194Z,4.58
2018-09-29T12:12:34.948Z,4.17
2018-09-29T12:13:44.848Z,4.58
2018-09-29T12:14:54.645Z,5.50
2018-09-29T12:16:04.332Z,3.30
2018-09-29T12:17:17.886Z,4.92
2018-09-29T12:18:27.567Z,5.03
2018-09-29T12:19:37.346Z,3.45
2018-09-29T12:20:47.094Z,3.30
2018-09-29T12:21:56.918Z,7.00
2018-09-29T12:23:06.751Z,5.67
2018-09-29T12:24:16.395Z,8.53
2018-09-29T12:25:26.156Z,5.08
2018-09-29T12:26:36.058Z,3.30
2018-09-29T12:27:45.984Z,3.60
2018-09-29T12:28:55.617Z,4.15
2018-09-29T12:30:05.782Z,4.78
2018-09-29T12:31:15.488Z,4.90
2018-09-29T12:32:25.190Z,2.92
2018-09-29T12:33:34.825Z,4.12
2018-09-29T12:34:44.509Z,2.58
2018-09-29T12:35:54.976Z,3.50
2018-09-29T12:37:04.904Z,7.00
2018-09-29T12:38:14.372Z,3.08
2018-09-29T12:39:23.841Z,4.53
2018-09-29T12:40:33.591Z,3.75
2018-09-29T12:41:43.317Z,5.47
2018-09-29T12:42:52.960Z,3.60
2018-09-29T12:44:02.817Z,6.85
2018-09-29T12:45:12.406Z,3.42
2018-09-29T12:46:22.114Z,8.80
2018-09-29T12:47:31.693Z,3.10
2018-09-29T12:48:41.430Z,2.90
2018-09-29T12:49:51.199Z,4.55
2018-09-29T12:51:01.305Z,3.37
2018-09-29T12:52:10.897Z,3.50
2018-09-29T12:53:20.656Z,4.40
2018-09-29T12:54:30.351Z,7.30
2018-09-29T12:55:39.981Z,3.08
2018-09-29T12:56:49.562Z,4.28
2018-09-29T12:57:59.338Z,5.05
2018-09-29T12:59:08.958Z,6.70
2018-09-29T13:00:18.571Z,3.22
2018-09-29T13:01:28.293Z,3.85
2018-09-29T13:02:37.942Z,3.27
2018-09-29T13:03:47.618Z,2.92
2018-09-29T13:05:03.842Z,3.55
2018-09-29T13:06:13.677Z,3.17
2018-09-29T13:07:23.348Z,2.50
2018-09-29T13:08:32.998Z,5.62
2018-09-29T13:09:42.549Z,6.58
2018-09-29T13:10:52.385Z,4.80
2018-09-29T13:12:02.119Z,3.45
2018-09-29T13:13:11.614Z,3.17
2018-09-29T13:14:21.280Z,4.20
2018-09-29T13:15:30.865Z,5.33
2018-09-29T13:16:40.456Z,2.22
2018-09-29T13:17:50.020Z,2.83
2018-09-29T13:18:59.734Z,3.77
2018-09-29T13:20:09.411Z,3.72
2018-09-29T13:21:18.996Z,4.53
2018-09-29T13:22:31.866Z,2.55
2018-09-29T13:23:41.722Z,2.50
2018-09-29T13:24:51.340Z,2.72
2018-09-29T13:26:01.201Z,3.58
2018-09-29T13:27:11.012Z,2.30
2018-09-29T13:28:20.661Z,2.70
2018-09-29T13:29:30.152Z,3.75
2018-09-29T13:30:39.836Z,4.60
2018-09-29T13:31:49.346Z,4.92
2018-09-29T13:32:58.975Z,3.27
2018-09-29T13:34:08.860Z,2.90
2018-09-29T13:35:18.571Z,2.52
2018-09-29T13:36:28.105Z,3.20
2018-09-29T13:37:37.883Z,2.65
2018-09-29T13:38:49.248Z,4.05
2018-09-29T13:39:58.923Z,3.20
2018-09-29T13:41:08.880Z,2.77
2018-09-29T13:42:18.500Z,4.90
2018-09-29T13:43:31.697Z,2.33
2018-09-29T13:44:41.459Z,1.90
2018-09-29T13:45:51.079Z,2.40
2018-09-29T13:47:00.942Z,4.67
2018-09-29T13:48:10.498Z,3.02
2018-09-29T13:49:20.321Z,3.87
2018-09-29T13:50:29.955Z,2.55
2018-09-29T13:51:39.686Z,2.90
2018-09-29T13:52:49.473Z,2.15
2018-09-29T13:54:03.305Z,2.62
2018-09-29T13:55:12.997Z,3.40
2018-09-29T13:56:22.782Z,3.50
2018-09-29T13:57:32.471Z,2.05
2018-09-29T13:58:42.300Z,2.85
2018-09-29T13:59:51.928Z,2.15
2018-09-29T14:01:01.701Z,3.02
2018-09-29T14:02:11.329Z,5.10
2018-09-29T14:03:20.832Z,3.62
2018-09-29T14:04:30.553Z,2.92
2018-09-29T14:05:40.033Z,2.75
2018-09-29T14:06:49.761Z,2.77
2018-09-29T14:07:59.470Z,2.35
2018-09-29T14:09:10.173Z,2.00
2018-09-29T14:10:23.140Z,1.85
2018-09-29T14:11:32.990Z,3.02
2018-09-29T14:12:42.606Z,2.80
2018-09-29T14:13:52.265Z,1.92
2018-09-29T14:15:01.945Z,4.03
2018-09-29T14:16:11.617Z,2.12
2018-09-29T14:17:21.467Z,4.30
2018-09-29T14:18:31.079Z,2.47
2018-09-29T14:19:40.574Z,2.87
2018-09-29T14:20:50.253Z,1.80
2018-09-29T14:22:00.090Z,4.10
2018-09-29T14:23:09.738Z,2.10
2018-09-29T14:24:19.246Z,2.02
2018-09-29T14:25:28.673Z,4.08
2018-09-29T14:26:38.213Z,2.85
2018-09-29T14:27:47.982Z,2.72
2018-09-29T14:28:57.478Z,3.95
2018-09-29T14:30:07.035Z,2.42
2018-09-29T14:31:16.930Z,4.30
2018-09-29T14:32:30.594Z,3.12
2018-09-29T14:33:40.167Z,4.15
2018-09-29T14:34:49.731Z,3.00
2018-09-29T14:35:59.249Z,2.70
2018-09-29T14:37:08.962Z,4.10
2018-09-29T14:38:22.602Z,2.55
2018-09-29T14:39:32.469Z,2.05
2018-09-29T14:40:42.345Z,3.52
2018-09-29T14:41:52.315Z,3.45
2018-09-29T14:43:01.949Z,2.77
2018-09-29T14:44:11.599Z,2.25
2018-09-29T14:45:21.290Z,1.70
2018-09-29T14:46:30.926Z,2.98
2018-09-29T14:48:50.060Z,3.20
2018-09-29T14:49:59.673Z,3.72
2018-09-29T14:51:09.447Z,3.62
2018-09-29T14:52:19.153Z,3.10
2018-09-29T14:53:28.990Z,2.20
2018-09-29T14:54:38.790Z,3.00
2018-09-29T14:55:48.346Z,2.67
2018-09-29T14:56:58.114Z,4.00
2018-09-29T14:58:07.750Z,2.17
2018-09-29T14:59:17.551Z,3.75
2018-09-29T15:00:27.284Z,2.42
2018-09-29T15:01:36.988Z,2.67
2018-09-29T15:02:46.570Z,2.50
2018-09-29T15:04:01.545Z,3.17
2018-09-29T15:05:11.059Z,2.58
2018-09-29T15:06:20.842Z,5.42
2018-09-29T15:07:30.397Z,2.62
2018-09-29T15:08:39.991Z,2.45
2018-09-29T15:09:49.569Z,1.80
2018-09-29T15:11:02.216Z,2.85
2018-09-29T15:12:12.066Z,4.35
2018-09-29T15:13:21.703Z,3.22
2018-09-29T15:14:31.309Z,6.97
2018-09-29T15:15:40.797Z,2.98
2018-09-29T15:16:50.450Z,2.12
2018-09-29T15:18:00.171Z,2.52
2018-09-29T15:19:09.671Z,3.30
2018-09-29T15:20:19.391Z,3.98
2018-09-29T15:21:29.004Z,2.90
2018-09-29T15:22:38.852Z,6.40
2018-09-29T15:23:48.501Z,2.58
2018-09-29T15:24:58.060Z,3.42
2018-09-29T15:26:07.948Z,3.90
2018-09-29T15:27:17.834Z,2.20
2018-09-29T15:28:27.428Z,3.60
2018-09-29T15:29:36.970Z,5.12
2018-09-29T15:30:46.655Z,1.92
2018-09-29T15:31:56.472Z,3.35
2018-09-29T15:33:06.248Z,2.60
2018-09-29T15:34:16.047Z,2.10
2018-09-29T15:35:25.507Z,2.60
2018-09-29T15:36:35.009Z,4.45